sensor_id;sensor_type;location;lat;lon;timestamp;pressure;altitude;pressure_sealevel;temperature;humidity
9307;BME280;4691;47.612;7.610;2022-09-28T00:01:23;97552.59;;;10.96;100.00
9307;BME280;4691;47.612;7.610;2022-09-28T00:03:51;97552.91;;;10.93;100.00
9307;BME280;4691;47.612;7.610;2022-09-28T00:06:20;97549.78;;;10.97;100.00
9307;BME280;4691;47.612;7.610;2022-09-28T00:08:46;97548.38;;;10.93;100.00
9307;BME280;4691;47.612;7.610;2022-09-28T00:11:14;97564.75;;;10.90;100.00
9307;BME280;4691;47.612;7.610;2022-09-28T00:13:40;97565.56;;;10.90;100.00
9307;BME280;4691;47.612;7.610;2022-09-28T00:16:10;97567.56;;;10.88;100.00
9307;BME280;4691;47.612;7.610;2022-09-28T00:18:36;97575.88;;;10.85;100.00
9307;BME280;4691;47.612;7.610;2022-09-28T00:21:03;97594.59;;;10.85;100.00
9307;BME280;4691;47.612;7.610;2022-09-28T00:23:30;97606.44;;;10.83;100.00
9307;BME280;4691;47.612;7.610;2022-09-28T00:25:55;97628.66;;;10.83;100.00
9307;BME280;4691;47.612;7.610;2022-09-28T00:28:20;97656.41;;;10.82;100.00
9307;BME280;4691;47.612;7.610;2022-09-28T00:30:46;97682.47;;;10.80;100.00
9307;BME280;4691;47.612;7.610;2022-09-28T00:33:11;97702.44;;;10.76;100.00
9307;BME280;4691;47.612;7.610;2022-09-28T00:35:36;97713.13;;;10.76;100.00
9307;BME280;4691;47.612;7.610;2022-09-28T00:38:02;97734.53;;;10.76;100.00
9307;BME280;4691;47.612;7.610;2022-09-28T00:40:28;97756.91;;;10.75;100.00
9307;BME280;4691;47.612;7.610;2022-09-28T00:42:53;97761.56;;;10.73;100.00
9307;BME280;4691;47.612;7.610;2022-09-28T00:45:18;97770.59;;;10.72;100.00
9307;BME280;4691;47.612;7.610;2022-09-28T00:47:53;97770.59;;;10.72;100.00
9307;BME280;4691;47.612;7.610;2022-09-28T00:50:29;97776.22;;;10.69;100.00
9307;BME280;4691;47.612;7.610;2022-09-28T00:53:10;97783.56;;;10.67;100.00
9307;BME280;4691;47.612;7.610;2022-09-28T00:55:42;97779.16;;;10.66;100.00
9307;BME280;4691;47.612;7.610;2022-09-28T00:58:12;97780.59;;;10.60;100.00
9307;BME280;4691;47.612;7.610;2022-09-28T01:00:40;97772.59;;;10.60;100.00
9307;BME280;4691;47.612;7.610;2022-09-28T01:03:06;97772.75;;;10.59;100.00
9307;BME280;4691;47.612;7.610;2022-09-28T01:05:33;97763.03;;;10.58;100.00
9307;BME280;4691;47.612;7.610;2022-09-28T01:08:00;97758.69;;;10.57;100.00
9307;BME280;4691;47.612;7.610;2022-09-28T01:10:27;97754.91;;;10.50;100.00
9307;BME280;4691;47.612;7.610;2022-09-28T01:12:53;97747.03;;;10.48;100.00
9307;BME280;4691;47.612;7.610;2022-09-28T01:15:20;97740.00;;;10.47;100.00
9307;BME280;4691;47.612;7.610;2022-09-28T01:18:20;97717.78;;;10.46;100.00
9307;BME280;4691;47.612;7.610;2022-09-28T01:21:00;97706.09;;;10.48;100.00
9307;BME280;4691;47.612;7.610;2022-09-28T01:24:07;97698.06;;;10.48;100.00
9307;BME280;4691;47.612;7.610;2022-09-28T01:26:51;97691.88;;;10.47;100.00
9307;BME280;4691;47.612;7.610;2022-09-28T01:31:51;97691.34;;;10.43;100.00
9307;BME280;4691;47.612;7.610;2022-09-28T01:34:29;97679.66;;;10.44;100.00
9307;BME280;4691;47.612;7.610;2022-09-28T01:36:59;97671.63;;;10.44;100.00
9307;BME280;4691;47.612;7.610;2022-09-28T01:39:33;97665.47;;;10.44;100.00
9307;BME280;4691;47.612;7.610;2022-09-28T01:42:08;97648.28;;;10.46;100.00
9307;BME280;4691;47.612;7.610;2022-09-28T01:44:36;97638.75;;;10.44;100.00
9307;BME280;4691;47.612;7.610;2022-09-28T01:47:06;97611.19;;;10.43;100.00
9307;BME280;4691;47.612;7.610;2022-09-28T01:49:44;97592.59;;;10.42;100.00
9307;BME280;4691;47.612;7.610;2022-09-28T01:52:12;97585.28;;;10.44;100.00
9307;BME280;4691;47.612;7.610;2022-09-28T01:54:41;97561.38;;;10.42;100.00
9307;BME280;4691;47.612;7.610;2022-09-28T01:57:17;97536.66;;;10.40;100.00
9307;BME280;4691;47.612;7.610;2022-09-28T01:59:50;97545.50;;;10.41;100.00
9307;BME280;4691;47.612;7.610;2022-09-28T02:02:19;97547.03;;;10.43;100.00
9307;BME280;4691;47.612;7.610;2022-09-28T02:04:51;97541.00;;;10.41;100.00
9307;BME280;4691;47.612;7.610;2022-09-28T02:07:19;97531.97;;;10.42;100.00
9307;BME280;4691;47.612;7.610;2022-09-28T02:10:32;97515.28;;;10.40;100.00
9307;BME280;4691;47.612;7.610;2022-09-28T02:12:56;97520.91;;;10.37;100.00
9307;BME280;4691;47.612;7.610;2022-09-28T02:15:34;97551.28;;;10.36;100.00
9307;BME280;4691;47.612;7.610;2022-09-28T02:19:34;97362.94;;;10.22;100.00
9307;BME280;4691;47.612;7.610;2022-09-28T02:22:09;97362.09;;;10.22;100.00
9307;BME280;4691;47.612;7.610;2022-09-28T02:25:10;97365.13;;;10.27;100.00
9307;BME280;4691;47.612;7.610;2022-09-28T02:28:05;97366.25;;;10.34;100.00
9307;BME280;4691;47.612;7.610;2022-09-28T02:30:35;97371.00;;;10.40;100.00
9307;BME280;4691;47.612;7.610;2022-09-28T02:33:10;97378.84;;;10.42;100.00
9307;BME280;4691;47.612;7.610;2022-09-28T02:35:37;97370.69;;;10.43;100.00
9307;BME280;4691;47.612;7.610;2022-09-28T02:38:03;97374.69;;;10.48;100.00
9307;BME280;4691;47.612;7.610;2022-09-28T02:40:31;97364.72;;;10.50;100.00
9307;BME280;4691;47.612;7.610;2022-09-28T02:43:03;97360.38;;;10.49;100.00
9307;BME280;4691;47.612;7.610;2022-09-28T02:48:12;97340.28;;;10.44;100.00
9307;BME280;4691;47.612;7.610;2022-09-28T02:50:51;97322.59;;;10.43;100.00
9307;BME280;4691;47.612;7.610;2022-09-28T02:54:27;97313.88;;;10.41;100.00
9307;BME280;4691;47.612;7.610;2022-09-28T03:07:36;97297.38;;;10.46;100.00
9307;BME280;4691;47.612;7.610;2022-09-28T03:12:47;97324.78;;;10.48;100.00
9307;BME280;4691;47.612;7.610;2022-09-28T03:15:21;97325.44;;;10.50;100.00
9307;BME280;4691;47.612;7.610;2022-09-28T03:17:47;97326.16;;;10.52;100.00
9307;BME280;4691;47.612;7.610;2022-09-28T03:20:12;97323.97;;;10.56;100.00
9307;BME280;4691;47.612;7.610;2022-09-28T03:22:38;97334.38;;;10.59;100.00
9307;BME280;4691;47.612;7.610;2022-09-28T03:25:05;97348.28;;;10.62;100.00
9307;BME280;4691;47.612;7.610;2022-09-28T03:27:30;97355.97;;;10.65;100.00
9307;BME280;4691;47.612;7.610;2022-09-28T03:29:55;97358.81;;;10.64;100.00
9307;BME280;4691;47.612;7.610;2022-09-28T03:32:21;97359.78;;;10.63;100.00
9307;BME280;4691;47.612;7.610;2022-09-28T03:34:46;97361.00;;;10.68;100.00
9307;BME280;4691;47.612;7.610;2022-09-28T03:37:11;97355.00;;;10.66;100.00
9307;BME280;4691;47.612;7.610;2022-09-28T03:39:37;97359.41;;;10.58;100.00
9307;BME280;4691;47.612;7.610;2022-09-28T03:42:02;97366.47;;;10.59;100.00
9307;BME280;4691;47.612;7.610;2022-09-28T03:44:27;97364.94;;;10.56;100.00
9307;BME280;4691;47.612;7.610;2022-09-28T03:46:53;97351.03;;;10.53;100.00
9307;BME280;4691;47.612;7.610;2022-09-28T03:49:18;97342.50;;;10.49;100.00
9307;BME280;4691;47.612;7.610;2022-09-28T03:51:43;97338.16;;;10.48;100.00
9307;BME280;4691;47.612;7.610;2022-09-28T03:54:08;97329.81;;;10.51;100.00
9307;BME280;4691;47.612;7.610;2022-09-28T03:56:34;97313.94;;;10.50;100.00
9307;BME280;4691;47.612;7.610;2022-09-28T03:59:02;97318.25;;;10.51;100.00
9307;BME280;4691;47.612;7.610;2022-09-28T04:01:27;97313.63;;;10.53;100.00
9307;BME280;4691;47.612;7.610;2022-09-28T04:03:53;97321.63;;;10.53;100.00
9307;BME280;4691;47.612;7.610;2022-09-28T04:06:22;97326.97;;;10.53;100.00
9307;BME280;4691;47.612;7.610;2022-09-28T04:08:48;97321.63;;;10.53;100.00
9307;BME280;4691;47.612;7.610;2022-09-28T04:11:13;97318.25;;;10.51;100.00
9307;BME280;4691;47.612;7.610;2022-09-28T04:13:39;97307.13;;;10.55;100.00
9307;BME280;4691;47.612;7.610;2022-09-28T04:16:04;97311.16;;;10.59;100.00
9307;BME280;4691;47.612;7.610;2022-09-28T04:18:30;97308.03;;;10.64;100.00
9307;BME280;4691;47.612;7.610;2022-09-28T04:21:02;97312.38;;;10.65;100.00
9307;BME280;4691;47.612;7.610;2022-09-28T04:23:29;97318.56;;;10.65;100.00
9307;BME280;4691;47.612;7.610;2022-09-28T04:25:54;97313.06;;;10.67;100.00
9307;BME280;4691;47.612;7.610;2022-09-28T04:28:20;97313.75;;;10.69;100.00
9307;BME280;4691;47.612;7.610;2022-09-28T04:31:08;97308.78;;;10.74;100.00
9307;BME280;4691;47.612;7.610;2022-09-28T04:33:34;97317.44;;;10.76;100.00
9307;BME280;4691;47.612;7.610;2022-09-28T04:36:00;97323.66;;;10.77;100.00
9307;BME280;4691;47.612;7.610;2022-09-28T04:38:25;97319.97;;;10.78;100.00
9307;BME280;4691;47.612;7.610;2022-09-28T04:40:50;97324.84;;;10.82;100.00
9307;BME280;4691;47.612;7.610;2022-09-28T04:43:16;97313.16;;;10.83;100.00
9307;BME280;4691;47.612;7.610;2022-09-28T04:45:41;97310.34;;;10.85;100.00
9307;BME280;4691;47.612;7.610;2022-09-28T04:48:06;97311.38;;;10.92;100.00
9307;BME280;4691;47.612;7.610;2022-09-28T04:50:32;97310.84;;;10.88;100.00
9307;BME280;4691;47.612;7.610;2022-09-28T04:52:59;97309.19;;;10.87;100.00
9307;BME280;4691;47.612;7.610;2022-09-28T04:55:24;97311.69;;;10.89;100.00
9307;BME280;4691;47.612;7.610;2022-09-28T04:57:50;97323.06;;;10.91;100.00
9307;BME280;4691;47.612;7.610;2022-09-28T05:00:15;97326.06;;;10.88;100.00
9307;BME280;4691;47.612;7.610;2022-09-28T05:02:41;97332.91;;;10.90;100.00
9307;BME280;4691;47.612;7.610;2022-09-28T05:05:06;97339.78;;;10.93;100.00
9307;BME280;4691;47.612;7.610;2022-09-28T05:07:32;97334.94;;;10.97;100.00
9307;BME280;4691;47.612;7.610;2022-09-28T05:09:57;97338.63;;;10.96;100.00
9307;BME280;4691;47.612;7.610;2022-09-28T05:12:24;97338.97;;;10.93;100.00
9307;BME280;4691;47.612;7.610;2022-09-28T05:14:50;97348.66;;;10.94;100.00
9307;BME280;4691;47.612;7.610;2022-09-28T05:17:15;97343.97;;;10.96;100.00
9307;BME280;4691;47.612;7.610;2022-09-28T05:19:41;97326.56;;;10.92;100.00
9307;BME280;4691;47.612;7.610;2022-09-28T05:22:06;97337.25;;;10.92;100.00
9307;BME280;4691;47.612;7.610;2022-09-28T05:24:35;97323.75;;;10.93;100.00
9307;BME280;4691;47.612;7.610;2022-09-28T05:27:00;97337.94;;;10.94;100.00
9307;BME280;4691;47.612;7.610;2022-09-28T05:29:25;97341.16;;;10.97;100.00
9307;BME280;4691;47.612;7.610;2022-09-28T05:31:51;97345.66;;;10.97;100.00
9307;BME280;4691;47.612;7.610;2022-09-28T05:34:16;97347.03;;;11.01;100.00
9307;BME280;4691;47.612;7.610;2022-09-28T05:36:41;97345.72;;;11.05;100.00
9307;BME280;4691;47.612;7.610;2022-09-28T05:39:09;97355.41;;;11.06;100.00
9307;BME280;4691;47.612;7.610;2022-09-28T05:41:35;97361.78;;;11.05;100.00
9307;BME280;4691;47.612;7.610;2022-09-28T05:44:00;97367.25;;;11.03;100.00
9307;BME280;4691;47.612;7.610;2022-09-28T05:46:26;97364.59;;;11.03;100.00
9307;BME280;4691;47.612;7.610;2022-09-28T05:48:51;97361.78;;;11.05;100.00
9307;BME280;4691;47.612;7.610;2022-09-28T05:51:17;97367.50;;;11.10;100.00
9307;BME280;4691;47.612;7.610;2022-09-28T05:53:42;97360.44;;;11.09;100.00
9307;BME280;4691;47.612;7.610;2022-09-28T05:56:07;97360.13;;;11.12;100.00
9307;BME280;4691;47.612;7.610;2022-09-28T05:58:32;97361.97;;;11.11;100.00
9307;BME280;4691;47.612;7.610;2022-09-28T06:00:58;97365.09;;;11.07;100.00
9307;BME280;4691;47.612;7.610;2022-09-28T06:03:24;97360.44;;;11.09;100.00
9307;BME280;4691;47.612;7.610;2022-09-28T06:05:49;97362.78;;;11.12;100.00
9307;BME280;4691;47.612;7.610;2022-09-28T06:08:15;97367.16;;;11.13;100.00
9307;BME280;4691;47.612;7.610;2022-09-28T06:10:40;97364.50;;;11.13;100.00
9307;BME280;4691;47.612;7.610;2022-09-28T06:13:06;97361.50;;;11.16;100.00
9307;BME280;4691;47.612;7.610;2022-09-28T06:15:33;97372.19;;;11.16;100.00
9307;BME280;4691;47.612;7.610;2022-09-28T06:18:10;97368.22;;;11.20;100.00
9307;BME280;4691;47.612;7.610;2022-09-28T06:20:38;97371.53;;;11.22;100.00
9307;BME280;4691;47.612;7.610;2022-09-28T06:23:10;97374.59;;;11.27;100.00
9307;BME280;4691;47.612;7.610;2022-09-28T06:25:36;97384.66;;;11.33;100.00
9307;BME280;4691;47.612;7.610;2022-09-28T06:28:04;97386.34;;;11.34;100.00
9307;BME280;4691;47.612;7.610;2022-09-28T06:30:32;97378.47;;;11.33;100.00
9307;BME280;4691;47.612;7.610;2022-09-28T06:32:59;97383.84;;;11.33;100.00
9307;BME280;4691;47.612;7.610;2022-09-28T06:35:26;97387.84;;;11.37;100.00
9307;BME280;4691;47.612;7.610;2022-09-28T06:37:52;97383.66;;;11.34;100.00
9307;BME280;4691;47.612;7.610;2022-09-28T06:40:18;97389.56;;;11.38;100.00
9307;BME280;4691;47.612;7.610;2022-09-28T06:43:03;97386.19;;;11.36;100.00
9307;BME280;4691;47.612;7.610;2022-09-28T06:45:34;97400.72;;;11.33;100.00
9307;BME280;4691;47.612;7.610;2022-09-28T06:48:00;97406.91;;;11.34;100.00
9307;BME280;4691;47.612;7.610;2022-09-28T06:50:28;97406.06;;;11.33;100.00
9307;BME280;4691;47.612;7.610;2022-09-28T06:52:56;97406.06;;;11.33;100.00
9307;BME280;4691;47.612;7.610;2022-09-28T06:55:22;97413.78;;;11.37;100.00
9307;BME280;4691;47.612;7.610;2022-09-28T06:57:56;97414.47;;;11.39;100.00
9307;BME280;4691;47.612;7.610;2022-09-28T07:00:22;97418.44;;;11.34;100.00
9307;BME280;4691;47.612;7.610;2022-09-28T07:02:47;97418.31;;;11.36;100.00
9307;BME280;4691;47.612;7.610;2022-09-28T07:05:13;97421.81;;;11.37;100.00
9307;BME280;4691;47.612;7.610;2022-09-28T07:07:38;97418.81;;;11.40;100.00
9307;BME280;4691;47.612;7.610;2022-09-28T07:10:05;97412.13;;;11.36;100.00
9307;BME280;4691;47.612;7.610;2022-09-28T07:12:30;97416.47;;;11.37;100.00
9307;BME280;4691;47.612;7.610;2022-09-28T07:14:58;97420.50;;;11.41;100.00
9307;BME280;4691;47.612;7.610;2022-09-28T07:17:24;97410.78;;;11.40;100.00
9307;BME280;4691;47.612;7.610;2022-09-28T07:19:49;97421.16;;;11.43;100.00
9307;BME280;4691;47.612;7.610;2022-09-28T07:22:19;97424.84;;;11.42;100.00
9307;BME280;4691;47.612;7.610;2022-09-28T07:24:46;97427.88;;;11.47;100.00
9307;BME280;4691;47.612;7.610;2022-09-28T07:27:12;97434.41;;;11.44;100.00
9307;BME280;4691;47.612;7.610;2022-09-28T07:29:37;97434.88;;;11.40;100.00
9307;BME280;4691;47.612;7.610;2022-09-28T07:32:02;97440.59;;;11.45;100.00
9307;BME280;4691;47.612;7.610;2022-09-28T07:34:27;97435.56;;;11.42;100.00
9307;BME280;4691;47.612;7.610;2022-09-28T07:36:53;97444.28;;;11.44;100.00
9307;BME280;4691;47.612;7.610;2022-09-28T07:39:23;97456.31;;;11.48;100.00
9307;BME280;4691;47.612;7.610;2022-09-28T07:41:49;97459.97;;;11.39;100.00
9307;BME280;4691;47.612;7.610;2022-09-28T07:44:14;97472.00;;;11.43;100.00
9307;BME280;4691;47.612;7.610;2022-09-28T07:46:40;97476.72;;;11.41;100.00
9307;BME280;4691;47.612;7.610;2022-09-28T07:49:07;97482.06;;;11.41;100.00
9307;BME280;4691;47.612;7.610;2022-09-28T07:51:33;97485.72;;;11.40;100.00
9307;BME280;4691;47.612;7.610;2022-09-28T07:53:58;97496.41;;;11.40;100.00
9307;BME280;4691;47.612;7.610;2022-09-28T07:56:24;97495.72;;;11.38;100.00
9307;BME280;4691;47.612;7.610;2022-09-28T07:58:49;97499.50;;;11.27;100.00
9307;BME280;4691;47.612;7.610;2022-09-28T08:01:15;97507.41;;;11.28;100.00
9307;BME280;4691;47.612;7.610;2022-09-28T08:03:42;97514.41;;;11.29;100.00
9307;BME280;4691;47.612;7.610;2022-09-28T08:06:14;97512.44;;;11.31;100.00
9307;BME280;4691;47.612;7.610;2022-09-28T08:08:41;97521.28;;;11.32;100.00
9307;BME280;4691;47.612;7.610;2022-09-28T08:11:13;97522.13;;;11.32;100.00
9307;BME280;4691;47.612;7.610;2022-09-28T08:13:39;97518.47;;;11.33;100.00
9307;BME280;4691;47.612;7.610;2022-09-28T08:16:05;97517.16;;;11.38;100.00
9307;BME280;4691;47.612;7.610;2022-09-28T08:18:33;97522.13;;;11.32;100.00
9307;BME280;4691;47.612;7.610;2022-09-28T08:20:59;97505.78;;;11.36;100.00
9307;BME280;4691;47.612;7.610;2022-09-28T08:23:43;97507.81;;;11.42;100.00
9307;BME280;4691;47.612;7.610;2022-09-28T08:26:08;97500.47;;;11.44;100.00
9307;BME280;4691;47.612;7.610;2022-09-28T08:28:34;97506.34;;;11.47;100.00
9307;BME280;4691;47.612;7.610;2022-09-28T08:30:59;97505.56;;;11.55;100.00
9307;BME280;4691;47.612;7.610;2022-09-28T08:33:28;97513.91;;;11.52;100.00
9307;BME280;4691;47.612;7.610;2022-09-28T08:35:55;97509.84;;;11.48;100.00
9307;BME280;4691;47.612;7.610;2022-09-28T08:38:22;97513.53;;;11.47;100.00
9307;BME280;4691;47.612;7.610;2022-09-28T08:46:02;97511.75;;;11.55;100.00
9307;BME280;4691;47.612;7.610;2022-09-28T08:48:31;97511.38;;;11.50;100.00
9307;BME280;4691;47.612;7.610;2022-09-28T08:57:16;97514.28;;;11.57;100.00
9307;BME280;4691;47.612;7.610;2022-09-28T08:59:54;97509.63;;;11.59;100.00
9307;BME280;4691;47.612;7.610;2022-09-28T09:02:29;97510.81;;;11.65;100.00
9307;BME280;4691;47.612;7.610;2022-09-28T09:04:58;97508.00;;;11.66;100.00
9307;BME280;4691;47.612;7.610;2022-09-28T09:07:50;97511.88;;;11.72;100.00
9307;BME280;4691;47.612;7.610;2022-09-28T09:13:12;97506.28;;;11.65;100.00
9307;BME280;4691;47.612;7.610;2022-09-28T09:16:14;97506.34;;;11.73;100.00
9307;BME280;4691;47.612;7.610;2022-09-28T09:18:48;97504.38;;;11.84;100.00
9307;BME280;4691;47.612;7.610;2022-09-28T09:30:11;97495.38;;;11.85;100.00
9307;BME280;4691;47.612;7.610;2022-09-28T09:32:46;97491.75;;;11.94;100.00
9307;BME280;4691;47.612;7.610;2022-09-28T09:35:25;97480.88;;;11.95;100.00
9307;BME280;4691;47.612;7.610;2022-09-28T09:41:01;97475.59;;;11.86;100.00
9307;BME280;4691;47.612;7.610;2022-09-28T09:44:01;97462.19;;;11.77;100.00
9307;BME280;4691;47.612;7.610;2022-09-28T09:46:42;97461.50;;;11.75;100.00
9307;BME280;4691;47.612;7.610;2022-09-28T09:49:30;97460.81;;;11.73;100.00
9307;BME280;4691;47.612;7.610;2022-09-28T09:52:04;97461.97;;;11.71;100.00
9307;BME280;4691;47.612;7.610;2022-09-28T09:54:52;97450.03;;;11.57;100.00
9307;BME280;4691;47.612;7.610;2022-09-28T09:57:23;97443.16;;;11.54;100.00
9307;BME280;4691;47.612;7.610;2022-09-28T09:59:50;97445.03;;;11.62;100.00
9307;BME280;4691;47.612;7.610;2022-09-28T10:02:23;97455.78;;;11.70;100.00
9307;BME280;4691;47.612;7.610;2022-09-28T10:04:53;97448.59;;;11.71;100.00
9307;BME280;4691;47.612;7.610;2022-09-28T10:07:24;97447.94;;;11.69;100.00
9307;BME280;4691;47.612;7.610;2022-09-28T10:09:54;97442.88;;;11.66;100.00
9307;BME280;4691;47.612;7.610;2022-09-28T10:12:22;97435.19;;;11.71;100.00
9307;BME280;4691;47.612;7.610;2022-09-28T10:14:48;97428.16;;;11.70;100.00
9307;BME280;4691;47.612;7.610;2022-09-28T10:17:16;97430.69;;;11.71;100.00
9307;BME280;4691;47.612;7.610;2022-09-28T10:19:44;97421.94;;;11.61;100.00
9307;BME280;4691;47.612;7.610;2022-09-28T10:22:17;97401.00;;;11.57;100.00
9307;BME280;4691;47.612;7.610;2022-09-28T10:24:46;97395.38;;;11.33;100.00
9307;BME280;4691;47.612;7.610;2022-09-28T10:27:16;97381.53;;;11.38;100.00
9307;BME280;4691;47.612;7.610;2022-09-28T10:29:52;97371.66;;;11.39;100.00
9307;BME280;4691;47.612;7.610;2022-09-28T10:32:36;97368.31;;;11.45;100.00
9307;BME280;4691;47.612;7.610;2022-09-28T10:35:13;97346.53;;;11.31;100.00
9307;BME280;4691;47.612;7.610;2022-09-28T10:38:04;97339.16;;;11.25;100.00
9307;BME280;4691;47.612;7.610;2022-09-28T10:40:32;97332.38;;;11.13;100.00
9307;BME280;4691;47.612;7.610;2022-09-28T10:43:14;97318.38;;;11.19;100.00
9307;BME280;4691;47.612;7.610;2022-09-28T10:45:41;97310.34;;;11.19;100.00
9307;BME280;4691;47.612;7.610;2022-09-28T10:48:15;97300.63;;;11.10;100.00
9307;BME280;4691;47.612;7.610;2022-09-28T10:50:42;97298.91;;;11.09;100.00
9307;BME280;4691;47.612;7.610;2022-09-28T10:53:16;97284.91;;;11.15;100.00
9307;BME280;4691;47.612;7.610;2022-09-28T10:55:59;97274.84;;;11.09;100.00
9307;BME280;4691;47.612;7.610;2022-09-28T10:58:28;97265.63;;;11.03;100.00
9307;BME280;4691;47.612;7.610;2022-09-28T11:01:16;97259.16;;;11.14;100.00
9307;BME280;4691;47.612;7.610;2022-09-28T11:06:26;97255.78;;;11.12;100.00
9307;BME280;4691;47.612;7.610;2022-09-28T11:08:54;97244.44;;;11.10;100.00
9307;BME280;4691;47.612;7.610;2022-09-28T11:11:21;97250.00;;;11.25;100.00
9307;BME280;4691;47.612;7.610;2022-09-28T11:13:52;97249.13;;;11.16;100.00
9307;BME280;4691;47.612;7.610;2022-09-28T11:16:29;97240.81;;;11.27;100.00
9307;BME280;4691;47.612;7.610;2022-09-28T11:18:57;97232.78;;;11.27;100.00
9307;BME280;4691;47.612;7.610;2022-09-28T11:21:26;97226.44;;;11.28;100.00
9307;BME280;4691;47.612;7.610;2022-09-28T11:24:09;97225.44;;;11.38;100.00
9307;BME280;4691;47.612;7.610;2022-09-28T11:26:44;97222.47;;;11.49;100.00
9307;BME280;4691;47.612;7.610;2022-09-28T11:29:22;97210.56;;;11.35;100.00
9307;BME280;4691;47.612;7.610;2022-09-28T11:31:50;97199.00;;;11.18;100.00
9307;BME280;4691;47.612;7.610;2022-09-28T16:16:28;97222.41;;;11.24;100.00
9307;BME280;4691;47.612;7.610;2022-09-28T19:12:56;97472.59;;;10.31;100.00
9307;BME280;4691;47.612;7.610;2022-09-28T19:15:22;97468.78;;;10.33;100.00
9307;BME280;4691;47.612;7.610;2022-09-28T19:17:48;97467.06;;;10.32;100.00
9307;BME280;4691;47.612;7.610;2022-09-28T19:20:14;97470.06;;;10.29;100.00
9307;BME280;4691;47.612;7.610;2022-09-28T19:22:39;97468.38;;;10.28;100.00
9307;BME280;4691;47.612;7.610;2022-09-28T19:25:05;97463.03;;;10.28;100.00
9307;BME280;4691;47.612;7.610;2022-09-28T19:27:30;97463.75;;;10.30;100.00
9307;BME280;4691;47.612;7.610;2022-09-28T19:29:55;97469.09;;;10.30;100.00
9307;BME280;4691;47.612;7.610;2022-09-28T19:32:20;97471.75;;;10.30;100.00
9307;BME280;4691;47.612;7.610;2022-09-28T19:34:46;97474.56;;;10.29;100.00
9307;BME280;4691;47.612;7.610;2022-09-28T19:37:11;97473.13;;;10.24;100.00
9307;BME280;4691;47.612;7.610;2022-09-28T19:39:36;97474.56;;;10.29;100.00
9307;BME280;4691;47.612;7.610;2022-09-28T19:42:02;97469.09;;;10.30;100.00
9307;BME280;4691;47.612;7.610;2022-09-28T19:44:28;97473.72;;;10.28;100.00
9307;BME280;4691;47.612;7.610;2022-09-28T19:47:05;97474.44;;;10.30;100.00
9307;BME280;4691;47.612;7.610;2022-09-28T19:49:36;97481.00;;;10.26;100.00
9307;BME280;4691;47.612;7.610;2022-09-28T19:52:12;97481.97;;;10.35;100.00
9307;BME280;4691;47.612;7.610;2022-09-28T19:54:48;97472.16;;;10.35;100.00
9307;BME280;4691;47.612;7.610;2022-09-28T19:57:25;97476.47;;;10.36;100.00
9307;BME280;4691;47.612;7.610;2022-09-28T19:59:52;97472.81;;;10.37;100.00
9307;BME280;4691;47.612;7.610;2022-09-28T20:02:20;97486.03;;;10.39;100.00
9307;BME280;4691;47.612;7.610;2022-09-28T20:04:46;97489.53;;;10.39;100.00
9307;BME280;4691;47.612;7.610;2022-09-28T20:07:11;97486.56;;;10.42;100.00
9307;BME280;4691;47.612;7.610;2022-09-28T20:09:36;97489.91;;;10.44;100.00
9307;BME280;4691;47.612;7.610;2022-09-28T20:12:02;97494.44;;;10.44;100.00
9307;BME280;4691;47.612;7.610;2022-09-28T20:14:27;97493.91;;;10.40;100.00
9307;BME280;4691;47.612;7.610;2022-09-28T20:16:53;97498.09;;;10.43;100.00
9307;BME280;4691;47.612;7.610;2022-09-28T20:19:18;97498.09;;;10.43;100.00
9307;BME280;4691;47.612;7.610;2022-09-28T20:21:46;97499.53;;;10.37;100.00
9307;BME280;4691;47.612;7.610;2022-09-28T20:24:12;97504.88;;;10.37;100.00
9307;BME280;4691;47.612;7.610;2022-09-28T20:26:39;97509.25;;;10.38;100.00
9307;BME280;4691;47.612;7.610;2022-09-28T20:29:05;97508.84;;;10.33;100.00
9307;BME280;4691;47.612;7.610;2022-09-28T20:31:32;97511.97;;;10.29;100.00
9307;BME280;4691;47.612;7.610;2022-09-28T20:34:00;97508.28;;;10.30;100.00
9307;BME280;4691;47.612;7.610;2022-09-28T20:36:28;97515.63;;;10.28;100.00
9307;BME280;4691;47.612;7.610;2022-09-28T20:38:57;97516.75;;;10.25;100.00
9307;BME280;4691;47.612;7.610;2022-09-28T20:41:26;97529.41;;;10.23;100.00
9307;BME280;4691;47.612;7.610;2022-09-28T20:43:54;97522.09;;;10.25;100.00
9307;BME280;4691;47.612;7.610;2022-09-28T20:46:20;97530.78;;;10.27;100.00
9307;BME280;4691;47.612;7.610;2022-09-28T20:53:57;97541.75;;;10.24;100.00
9307;BME280;4691;47.612;7.610;2022-09-28T20:58:50;97539.53;;;10.29;100.00
9307;BME280;4691;47.612;7.610;2022-09-28T21:01:18;97521.22;;;10.24;100.00
9307;BME280;4691;47.612;7.610;2022-09-28T21:06:15;97528.00;;;10.19;100.00
9307;BME280;4691;47.612;7.610;2022-09-28T21:08:41;97533.94;;;10.13;100.00
9307;BME280;4691;47.612;7.610;2022-09-28T21:11:09;97532.25;;;10.12;100.00
9307;BME280;4691;47.612;7.610;2022-09-28T21:13:34;97537.31;;;10.15;100.00
9307;BME280;4691;47.612;7.610;2022-09-28T21:16:00;97534.78;;;10.13;100.00
9307;BME280;4691;47.612;7.610;2022-09-28T21:18:26;97526.38;;;10.08;100.00
9307;BME280;4691;47.612;7.610;2022-09-28T21:20:51;97532.84;;;10.06;100.00
9307;BME280;4691;47.612;7.610;2022-09-28T21:23:17;97530.06;;;10.07;100.00
9307;BME280;4691;47.612;7.610;2022-09-28T21:25:43;97529.75;;;10.10;100.00
9307;BME280;4691;47.612;7.610;2022-09-28T21:28:13;97533.38;;;10.09;100.00
9307;BME280;4691;47.612;7.610;2022-09-28T21:30:40;97523.28;;;10.13;100.00
9307;BME280;4691;47.612;7.610;2022-09-28T21:33:05;97528.63;;;10.13;100.00
9307;BME280;4691;47.612;7.610;2022-09-28T21:35:35;97530.28;;;10.14;100.00
9307;BME280;4691;47.612;7.610;2022-09-28T21:38:01;97524.63;;;10.17;100.00
9307;BME280;4691;47.612;7.610;2022-09-28T21:40:27;97526.34;;;10.18;100.00
9307;BME280;4691;47.612;7.610;2022-09-28T21:42:52;97530.38;;;10.22;100.00
9307;BME280;4691;47.612;7.610;2022-09-28T21:45:17;97527.44;;;10.25;100.00
9307;BME280;4691;47.612;7.610;2022-09-28T21:47:43;97527.44;;;10.25;100.00
9307;BME280;4691;47.612;7.610;2022-09-28T21:50:12;97529.41;;;10.23;100.00
9307;BME280;4691;47.612;7.610;2022-09-28T21:52:37;97523.22;;;10.22;100.00
9307;BME280;4691;47.612;7.610;2022-09-28T21:55:03;97531.06;;;10.24;100.00
9307;BME280;4691;47.612;7.610;2022-09-28T21:57:28;97516.75;;;10.25;100.00